SKSM/SMR METAR and TAF weather

Enter ICAO airport designator
Station Type Date Time Source
SKSM METAR 2022/12/10 02:00 UTC NOAA

SKSM 100200Z 10005KT 9999 NSC 26/20 Q1010 RMK A2985


Station Type Date Time Source
SKSM Decoded METAR 2022/12/10 02:00 UTC NOAA

Santa Marta / Simon Bolivar, Colombia (SKSM) 11-08N 074-14W 14M
Dec 09, 2022 - 09:00 PM EST / 2022.12.10 0200 UTC
Wind: from the E (100 degrees) at 6 MPH (5 KT):0
Visibility: greater than 7 mile(s):0
Temperature: 78 F (26 C)
Dew Point: 68 F (20 C)
Relative Humidity: 69%
Pressure (altimeter): 29.83 in. Hg (1010 hPa)
ob: SKSM 100200Z 10005KT 9999 NSC 26/20 Q1010 RMK A2985
cycle: 2

Station Type Date Time Source
SKSM TAF 2022/12/09 18:39 UTC NOAA

TAF SKSM 091630Z 0918/1018 03010KT 9999 FEW020 TX32/0918Z TN23/1011Z

Example: see airport list